createdAt,value
2023-04-05T00:00:11.157Z,17.30
2023-04-05T00:02:40.818Z,17.80
2023-04-05T00:05:09.884Z,19.43
2023-04-05T00:07:38.550Z,19.47
2023-04-05T00:10:07.182Z,20.87
2023-04-05T00:12:35.420Z,19.93
2023-04-05T00:15:05.945Z,23.07
2023-04-05T00:17:35.451Z,20.43
2023-04-05T00:20:07.629Z,18.73
2023-04-05T00:22:37.062Z,23.03
2023-04-05T00:25:05.860Z,22.87
2023-04-05T00:27:34.817Z,21.73
2023-04-05T00:30:05.837Z,22.03
2023-04-05T00:32:34.294Z,21.00
2023-04-05T00:35:02.618Z,18.57
2023-04-05T00:37:31.024Z,22.43
2023-04-05T00:39:59.345Z,21.30
2023-04-05T00:42:27.866Z,20.43
2023-04-05T00:44:56.253Z,23.10
2023-04-05T00:47:26.072Z,21.13
2023-04-05T00:49:54.567Z,19.73
2023-04-05T00:52:23.463Z,21.97
2023-04-05T00:54:53.650Z,21.77
2023-04-05T00:57:21.951Z,21.93
2023-04-05T00:59:50.263Z,22.47
2023-04-05T01:02:26.178Z,22.30
2023-04-05T01:05:01.056Z,19.47
2023-04-05T01:07:37.587Z,21.60
2023-04-05T01:10:07.610Z,25.80
2023-04-05T01:12:37.228Z,22.07
2023-04-05T01:15:06.461Z,22.20
2023-04-05T01:17:39.423Z,23.57
2023-04-05T01:20:13.205Z,23.43
2023-04-05T01:23:06.772Z,21.10
2023-04-05T01:26:14.720Z,23.67
2023-04-05T01:29:23.397Z,19.90
2023-04-05T01:32:01.482Z,20.23
2023-04-05T01:34:41.581Z,21.97
2023-04-05T01:37:16.410Z,25.07
2023-04-05T01:39:47.471Z,23.10
2023-04-05T01:42:15.988Z,27.23
2023-04-05T01:44:44.323Z,19.10
2023-04-05T01:47:13.913Z,24.47
2023-04-05T01:49:42.331Z,22.47
2023-04-05T01:52:12.293Z,22.60
2023-04-05T01:54:40.666Z,22.60
2023-04-05T01:57:10.754Z,22.83
2023-04-05T01:59:39.037Z,21.47
2023-04-05T02:02:07.390Z,21.63
2023-04-05T02:04:37.047Z,25.70
2023-04-05T02:07:05.427Z,24.93
2023-04-05T02:09:33.736Z,25.37
2023-04-05T02:12:02.361Z,23.40
2023-04-05T02:14:30.637Z,25.17
2023-04-05T02:16:58.901Z,23.27
2023-04-05T02:19:29.860Z,22.33
2023-04-05T02:21:59.516Z,24.67
2023-04-05T02:24:27.817Z,22.07
2023-04-05T02:26:56.466Z,23.10
2023-04-05T02:29:26.329Z,23.13
2023-04-05T02:31:54.640Z,27.80
2023-04-05T02:34:23.476Z,21.07
2023-04-05T02:36:52.172Z,22.07
2023-04-05T02:39:21.888Z,23.87
2023-04-05T02:41:50.133Z,25.17
2023-04-05T02:44:18.430Z,24.53
2023-04-05T02:46:46.933Z,21.43
2023-04-05T02:49:15.739Z,23.70
2023-04-05T02:51:43.954Z,26.47
2023-04-05T02:54:12.306Z,23.73
2023-04-05T02:56:43.662Z,25.03
2023-04-05T02:59:16.194Z,22.57
2023-04-05T03:01:46.130Z,21.87
2023-04-05T03:04:26.931Z,22.47
2023-04-05T03:07:02.827Z,27.83
2023-04-05T03:09:33.866Z,25.03
2023-04-05T03:12:08.557Z,21.57
2023-04-05T03:14:41.187Z,22.30
2023-04-05T03:17:12.327Z,21.67
2023-04-05T03:19:45.563Z,22.37
2023-04-05T03:22:22.410Z,22.20
2023-04-05T03:24:50.750Z,21.33
2023-04-05T03:27:21.978Z,24.07
2023-04-05T03:30:16.505Z,24.43
2023-04-05T03:32:51.768Z,24.60
2023-04-05T03:35:38.386Z,26.20
2023-04-05T03:38:09.443Z,27.33
2023-04-05T03:40:42.692Z,24.73
2023-04-05T03:43:13.648Z,25.57
2023-04-05T03:45:42.334Z,26.57
2023-04-05T03:48:10.998Z,25.87
2023-04-05T03:50:39.320Z,26.20
2023-04-05T03:53:07.559Z,32.10
2023-04-05T03:55:36.996Z,24.67
2023-04-05T03:58:07.802Z,25.07
2023-04-05T04:00:39.277Z,23.30
2023-04-05T04:03:21.078Z,26.00
2023-04-05T04:05:52.624Z,26.17
2023-04-05T04:08:21.977Z,25.57
2023-04-05T04:10:51.162Z,26.17
2023-04-05T04:13:39.594Z,24.40
2023-04-05T04:16:16.111Z,25.03
2023-04-05T04:18:56.496Z,27.33
2023-04-05T04:21:48.764Z,30.60
2023-04-05T04:24:35.308Z,26.60
2023-04-05T04:27:06.940Z,27.97
2023-04-05T04:30:10.875Z,27.73
2023-04-05T04:33:12.862Z,25.57
2023-04-05T04:35:47.838Z,30.00
2023-04-05T04:38:35.004Z,27.53
2023-04-05T04:41:22.781Z,28.70
2023-04-05T04:44:08.277Z,27.97
2023-04-05T04:46:46.901Z,29.20
2023-04-05T04:49:21.593Z,31.10
2023-04-05T04:51:50.061Z,26.90
2023-04-05T04:54:22.362Z,29.87
2023-04-05T04:56:50.638Z,27.17
2023-04-05T04:59:19.067Z,30.30
2023-04-05T05:01:47.411Z,30.23
2023-04-05T05:04:15.684Z,27.67
2023-04-05T05:06:45.894Z,35.30
2023-04-05T05:09:14.174Z,27.00
2023-04-05T05:11:59.539Z,32.57
2023-04-05T05:14:27.781Z,29.27
2023-04-05T05:16:59.156Z,26.53
2023-04-05T05:19:30.100Z,32.57
2023-04-05T05:22:00.872Z,31.20
2023-04-05T05:24:29.095Z,28.87
2023-04-05T05:26:57.299Z,30.93
2023-04-05T05:29:25.664Z,31.83
2023-04-05T05:31:53.918Z,34.33
2023-04-05T05:34:22.468Z,34.07
2023-04-05T05:36:54.814Z,29.10
2023-04-05T05:39:25.188Z,30.23
2023-04-05T05:41:53.494Z,27.40
2023-04-05T05:44:21.690Z,27.97
2023-04-05T05:46:49.937Z,32.77
2023-04-05T05:49:18.381Z,29.53
2023-04-05T05:51:47.392Z,29.40
2023-04-05T05:54:15.606Z,27.73
2023-04-05T05:56:45.347Z,32.27
2023-04-05T05:59:13.827Z,25.60
2023-04-05T06:01:46.511Z,25.57
2023-04-05T06:04:16.554Z,31.00
2023-04-05T06:06:46.793Z,28.03
2023-04-05T06:09:15.890Z,28.37
2023-04-05T06:11:55.798Z,28.57
2023-04-05T06:14:25.585Z,26.03
2023-04-05T06:16:53.975Z,26.43
2023-04-05T06:19:22.230Z,27.70
2023-04-05T06:21:50.497Z,30.57
2023-04-05T06:24:18.716Z,30.43
2023-04-05T06:26:48.312Z,25.47
2023-04-05T06:29:16.596Z,29.03
2023-04-05T06:31:46.749Z,26.37
2023-04-05T06:34:15.229Z,24.63
2023-04-05T06:36:43.806Z,27.73
2023-04-05T06:39:12.043Z,29.33
2023-04-05T06:41:40.269Z,27.43
2023-04-05T06:44:10.047Z,26.60
2023-04-05T06:46:38.397Z,30.60
2023-04-05T06:49:06.676Z,27.03
2023-04-05T06:51:34.995Z,26.80
2023-04-05T06:54:03.249Z,31.63
2023-04-05T06:56:32.562Z,25.80
2023-04-05T06:59:02.386Z,27.33
2023-04-05T07:01:32.252Z,28.50
2023-04-05T07:04:00.937Z,24.43
2023-04-05T07:06:29.290Z,24.50
2023-04-05T07:08:57.550Z,24.50
2023-04-05T07:11:25.833Z,27.43
2023-04-05T07:13:54.198Z,25.00
2023-04-05T07:16:23.719Z,24.07
2023-04-05T07:18:53.650Z,24.67
2023-04-05T07:21:21.876Z,26.70
2023-04-05T07:23:50.257Z,26.13
2023-04-05T07:26:18.527Z,22.00
2023-04-05T07:28:46.811Z,24.37
2023-04-05T07:31:16.558Z,22.20
2023-04-05T07:33:44.806Z,22.63
2023-04-05T07:36:14.450Z,21.67
2023-04-05T07:38:43.284Z,25.93
2023-04-05T07:41:11.859Z,21.47
2023-04-05T07:43:40.109Z,22.47
2023-04-05T07:46:08.368Z,20.07
2023-04-05T07:48:36.730Z,18.47
2023-04-05T07:51:07.081Z,21.00
2023-04-05T07:53:38.085Z,21.23
2023-04-05T07:56:06.907Z,19.37
2023-04-05T07:58:35.835Z,17.20
2023-04-05T08:01:05.215Z,16.30
2023-04-05T08:03:35.260Z,17.07
2023-04-05T08:06:12.147Z,15.23
2023-04-05T08:08:41.983Z,20.23
2023-04-05T08:11:10.471Z,14.70
2023-04-05T08:13:41.532Z,16.63
2023-04-05T08:16:10.424Z,17.73
2023-04-05T08:18:38.905Z,16.17
2023-04-05T08:21:07.368Z,16.10
2023-04-05T08:23:35.680Z,15.53
2023-04-05T08:26:05.647Z,15.70
2023-04-05T08:28:33.913Z,13.93
2023-04-05T08:31:02.245Z,14.83
2023-04-05T08:33:31.465Z,16.27
2023-04-05T08:36:04.598Z,14.80
2023-04-05T08:38:32.905Z,15.67
2023-04-05T08:41:09.603Z,13.23
2023-04-05T08:43:50.546Z,12.57
2023-04-05T08:46:20.086Z,15.90
2023-04-05T08:48:48.570Z,14.60
2023-04-05T08:51:20.520Z,19.60
2023-04-05T08:53:49.192Z,17.70
2023-04-05T08:56:22.303Z,20.20
2023-04-05T08:58:59.617Z,18.30
2023-04-05T09:01:30.646Z,20.23
2023-04-05T09:04:01.471Z,18.87
2023-04-05T09:06:29.940Z,17.57
2023-04-05T09:08:59.218Z,16.03
2023-04-05T09:11:29.163Z,16.60
2023-04-05T09:13:57.445Z,17.27
2023-04-05T09:16:28.284Z,19.77
2023-04-05T09:18:56.556Z,16.13
2023-04-05T09:21:24.791Z,19.77
2023-04-05T09:23:55.765Z,14.60
2023-04-05T09:26:26.414Z,15.90
2023-04-05T09:29:02.247Z,16.77
2023-04-05T09:31:35.039Z,15.73
2023-04-05T09:34:08.928Z,16.60
2023-04-05T09:36:37.476Z,16.63
2023-04-05T09:39:08.009Z,17.67
2023-04-05T09:41:37.600Z,17.37
2023-04-05T09:44:07.311Z,18.07
2023-04-05T09:46:38.210Z,16.47
2023-04-05T09:49:09.523Z,17.07
2023-04-05T09:51:39.145Z,17.30
2023-04-05T09:54:13.145Z,15.97
2023-04-05T09:56:42.525Z,16.50
2023-04-05T09:59:13.248Z,16.63
2023-04-05T10:01:45.904Z,17.00
2023-04-05T10:04:14.215Z,16.83
2023-04-05T10:06:44.001Z,19.40
2023-04-05T10:09:15.320Z,15.40
2023-04-05T10:11:45.463Z,17.67
2023-04-05T10:14:16.311Z,14.87
2023-04-05T10:16:52.251Z,17.37
2023-04-05T10:19:27.961Z,18.53
2023-04-05T10:22:00.717Z,15.00
2023-04-05T10:24:37.811Z,16.37
2023-04-05T10:27:10.096Z,17.07
2023-04-05T10:29:56.218Z,14.60
2023-04-05T10:32:37.186Z,17.60
2023-04-05T10:35:11.043Z,15.57
2023-04-05T10:37:54.930Z,17.37
2023-04-05T10:40:24.046Z,19.33
2023-04-05T10:42:53.344Z,17.50
2023-04-05T10:45:23.820Z,16.53
2023-04-05T10:47:56.444Z,15.90
2023-04-05T10:50:26.278Z,14.93
2023-04-05T10:52:54.831Z,17.93
2023-04-05T10:55:23.560Z,16.43
2023-04-05T10:57:52.384Z,19.63
2023-04-05T11:00:23.671Z,19.27
2023-04-05T11:02:57.181Z,20.83
2023-04-05T11:05:35.961Z,16.47
2023-04-05T11:08:08.552Z,19.40
2023-04-05T11:10:38.665Z,18.00
2023-04-05T11:13:12.052Z,16.90
2023-04-05T11:15:42.033Z,17.50
2023-04-05T11:18:12.228Z,19.00
2023-04-05T11:20:46.460Z,18.50
2023-04-05T11:23:16.380Z,16.13
2023-04-05T11:25:51.044Z,16.63
2023-04-05T11:28:26.691Z,19.83
2023-04-05T11:30:58.931Z,14.43
2023-04-05T11:33:56.810Z,18.30
2023-04-05T11:36:46.077Z,17.57
2023-04-05T11:39:30.007Z,15.77
2023-04-05T11:42:02.180Z,16.83
2023-04-05T11:44:49.353Z,15.40
2023-04-05T11:47:21.716Z,16.73
2023-04-05T11:49:53.821Z,15.53
2023-04-05T11:52:22.972Z,15.70
2023-04-05T11:54:51.306Z,15.47
2023-04-05T11:57:22.447Z,15.97
2023-04-05T11:59:53.195Z,18.10
2023-04-05T12:02:23.300Z,18.10
2023-04-05T12:04:58.730Z,16.23
2023-04-05T12:07:29.098Z,16.20
2023-04-05T12:10:09.893Z,16.03
2023-04-05T12:12:39.496Z,15.30
2023-04-05T12:15:10.659Z,16.93
2023-04-05T12:17:51.439Z,16.20
2023-04-05T12:20:22.340Z,14.37
2023-04-05T12:22:52.740Z,18.73
2023-04-05T12:25:21.711Z,16.77
2023-04-05T12:27:50.155Z,16.07
2023-04-05T12:30:20.600Z,17.43
2023-04-05T12:32:52.825Z,14.23
2023-04-05T12:35:22.805Z,18.23
2023-04-05T12:37:53.845Z,15.03
2023-04-05T12:40:24.554Z,15.57
2023-04-05T12:42:53.480Z,16.47
2023-04-05T12:45:25.071Z,15.47
2023-04-05T12:47:58.324Z,16.57
2023-04-05T12:50:29.130Z,21.23
2023-04-05T12:52:59.040Z,14.47
2023-04-05T12:55:28.472Z,16.30
2023-04-05T12:58:00.444Z,15.47
2023-04-05T13:00:31.183Z,14.97
2023-04-05T13:03:01.311Z,16.43
2023-04-05T13:05:31.366Z,15.53
2023-04-05T13:08:00.121Z,17.27
2023-04-05T13:10:28.603Z,14.43
2023-04-05T13:12:56.968Z,18.15
2023-04-05T13:15:25.228Z,13.05
2023-04-05T13:17:55.151Z,14.93
2023-04-05T13:20:25.003Z,13.57
2023-04-05T13:22:53.346Z,17.17
2023-04-05T13:25:21.567Z,14.85
2023-04-05T13:27:50.109Z,16.23
2023-04-05T13:30:18.758Z,15.60
2023-04-05T13:32:47.148Z,17.53
2023-04-05T13:35:15.476Z,14.50
2023-04-05T13:37:45.176Z,17.00
2023-04-05T13:40:33.918Z,14.00
2023-04-05T13:43:02.430Z,14.95
2023-04-05T13:45:31.425Z,15.30
2023-04-05T13:47:59.808Z,17.58
2023-04-05T13:50:28.074Z,14.82
2023-04-05T13:52:57.749Z,12.93
2023-04-05T13:55:25.974Z,14.18
2023-04-05T13:57:54.265Z,14.50
2023-04-05T14:00:23.063Z,15.77
2023-04-05T14:02:53.000Z,16.50
2023-04-05T14:05:21.345Z,13.98
2023-04-05T14:07:50.365Z,13.77
2023-04-05T14:10:21.818Z,14.65
2023-04-05T14:12:50.061Z,15.68
2023-04-05T14:15:18.449Z,14.55
2023-04-05T14:17:46.846Z,17.40
2023-04-05T14:20:15.396Z,14.55
2023-04-05T14:22:43.769Z,13.52
2023-04-05T14:25:12.175Z,17.73
2023-04-05T14:27:42.591Z,15.07
2023-04-05T14:30:12.346Z,16.17
2023-04-05T14:32:40.978Z,15.77
2023-04-05T14:35:10.455Z,19.65
2023-04-05T14:37:39.117Z,18.15
2023-04-05T14:40:08.476Z,21.13
2023-04-05T14:42:47.763Z,20.67
2023-04-05T14:45:18.962Z,16.45
2023-04-05T14:47:47.469Z,31.92
2023-04-05T14:50:16.034Z,14.65
2023-04-05T14:52:45.433Z,26.38
2023-04-05T14:55:14.101Z,20.55
2023-04-05T14:57:42.718Z,15.73
2023-04-05T15:00:12.240Z,17.77
2023-04-05T15:02:42.347Z,15.52
2023-04-05T15:05:11.325Z,16.55
2023-04-05T15:07:39.682Z,14.15
2023-04-05T15:10:08.567Z,19.27
2023-04-05T15:12:37.086Z,15.38
2023-04-05T15:15:06.063Z,18.95
2023-04-05T15:17:34.745Z,17.45
2023-04-05T15:20:05.028Z,15.57
2023-04-05T15:22:33.447Z,18.95
2023-04-05T15:25:01.747Z,18.75
2023-04-05T15:27:30.168Z,19.00
2023-04-05T15:29:58.457Z,18.52
2023-04-05T15:32:26.970Z,19.45
2023-04-05T15:34:55.423Z,19.45
2023-04-05T15:37:25.098Z,17.92
2023-04-05T15:39:53.410Z,17.08
2023-04-05T15:42:22.151Z,18.98
2023-04-05T15:44:50.839Z,17.33
2023-04-05T15:47:19.734Z,17.75
2023-04-05T15:49:48.657Z,17.63
2023-04-05T15:52:17.003Z,18.30
2023-04-05T15:54:47.722Z,19.05
2023-04-05T15:57:16.066Z,29.83
2023-04-05T15:59:44.542Z,26.08
2023-04-05T16:02:13.013Z,26.30
2023-04-05T16:04:41.563Z,25.33
2023-04-05T16:07:09.940Z,20.17
2023-04-05T16:09:38.246Z,23.02
2023-04-05T16:12:08.014Z,21.48
2023-04-05T16:14:36.377Z,34.17
2023-04-05T16:17:04.822Z,21.35
2023-04-05T16:19:33.420Z,22.02
2023-04-05T16:22:03.416Z,20.60
2023-04-05T16:24:33.217Z,20.38
2023-04-05T16:27:01.646Z,21.00
2023-04-05T16:29:31.681Z,23.25
2023-04-05T16:32:00.093Z,20.60
2023-04-05T16:34:28.740Z,19.90
2023-04-05T16:36:57.157Z,19.90
2023-04-05T16:39:25.531Z,19.42
2023-04-05T16:41:53.877Z,19.00
2023-04-05T16:44:22.232Z,19.40
2023-04-05T16:46:53.985Z,23.13
2023-04-05T16:49:22.365Z,17.90
2023-04-05T16:51:50.656Z,16.52
2023-04-05T16:54:18.979Z,17.25
2023-04-05T16:56:47.322Z,22.67
2023-04-05T16:59:15.716Z,20.95
2023-04-05T17:01:44.122Z,18.48
2023-04-05T17:04:13.845Z,22.67
2023-04-05T17:06:42.487Z,22.13
2023-04-05T17:09:10.870Z,21.35
2023-04-05T17:11:39.178Z,21.85
2023-04-05T17:14:07.828Z,18.30
2023-04-05T17:16:36.389Z,17.27
2023-04-05T17:19:05.098Z,19.80
2023-04-05T17:21:36.467Z,18.30
2023-04-05T17:24:04.981Z,18.03
2023-04-05T17:26:33.578Z,20.23
2023-04-05T17:29:02.128Z,19.30
2023-04-05T17:31:33.382Z,20.97
2023-04-05T17:34:01.803Z,19.83
2023-04-05T17:36:30.170Z,19.70
2023-04-05T17:38:59.924Z,19.07
2023-04-05T17:41:28.231Z,16.97
2023-04-05T17:43:56.536Z,21.63
2023-04-05T17:46:37.751Z,21.10
2023-04-05T17:49:09.063Z,19.20
2023-04-05T17:51:37.468Z,18.80
2023-04-05T17:54:07.297Z,20.00
2023-04-05T17:56:36.090Z,22.60
2023-04-05T17:59:06.190Z,21.43
2023-04-05T18:01:34.833Z,22.87
2023-04-05T18:04:05.058Z,25.67
2023-04-05T18:06:33.446Z,27.37
2023-04-05T18:09:02.422Z,32.40
2023-04-05T18:11:32.163Z,25.13
2023-04-05T18:14:00.546Z,23.80
2023-04-05T18:16:29.387Z,23.53
2023-04-05T18:18:57.825Z,22.27
2023-04-05T18:21:26.187Z,23.57
2023-04-05T18:23:54.545Z,21.63
2023-04-05T18:26:22.841Z,25.00
2023-04-05T18:28:57.798Z,24.67
2023-04-05T18:31:26.283Z,26.83
2023-04-05T18:33:54.749Z,25.50
2023-04-05T18:36:25.616Z,29.90
2023-04-05T18:38:55.646Z,29.27
2023-04-05T18:41:26.836Z,25.00
2023-04-05T18:43:57.329Z,26.40
2023-04-05T18:46:28.809Z,26.43
2023-04-05T18:48:57.919Z,24.93
2023-04-05T18:51:27.269Z,24.47
2023-04-05T18:53:55.634Z,25.83
2023-04-05T18:56:23.901Z,24.30
2023-04-05T18:58:52.493Z,25.03
2023-04-05T19:01:23.433Z,30.10
2023-04-05T19:03:51.884Z,27.90
2023-04-05T19:06:20.371Z,30.47
2023-04-05T19:08:48.884Z,26.27
2023-04-05T19:11:18.552Z,30.90
2023-04-05T19:13:47.864Z,29.33
2023-04-05T19:16:17.516Z,24.60
2023-04-05T19:18:47.412Z,29.67
2023-04-05T19:21:15.844Z,26.43
2023-04-05T19:23:44.263Z,25.80
2023-04-05T19:26:12.681Z,31.23
2023-04-05T19:28:41.072Z,26.63
2023-04-05T19:31:10.904Z,26.27
2023-04-05T19:33:39.491Z,33.07
2023-04-05T19:36:09.490Z,29.20
2023-04-05T19:38:37.842Z,30.07
2023-04-05T19:41:06.350Z,31.67
2023-04-05T19:43:36.842Z,27.13
2023-04-05T19:46:09.557Z,28.80
2023-04-05T19:48:40.437Z,32.00
2023-04-05T19:51:10.963Z,27.93
2023-04-05T19:53:46.799Z,31.03
2023-04-05T19:56:21.745Z,28.23
2023-04-05T19:58:51.659Z,29.17
2023-04-05T20:01:32.492Z,30.93
2023-04-05T20:04:03.158Z,29.07
2023-04-05T20:06:35.000Z,29.97
2023-04-05T20:09:06.050Z,28.43
2023-04-05T20:11:35.844Z,30.97
2023-04-05T20:14:06.242Z,24.63
2023-04-05T20:16:36.380Z,27.10
2023-04-05T20:19:06.836Z,25.73
2023-04-05T20:21:38.533Z,27.67
2023-04-05T20:24:09.885Z,25.83
2023-04-05T20:26:38.303Z,29.20
2023-04-05T20:29:09.890Z,30.70
2023-04-05T20:31:40.123Z,29.27
2023-04-05T20:34:11.277Z,29.20
2023-04-05T20:36:47.869Z,29.70
2023-04-05T20:39:16.559Z,28.80
2023-04-05T20:41:44.935Z,31.43
2023-04-05T20:44:13.335Z,24.87
2023-04-05T20:46:42.070Z,27.50
2023-04-05T20:49:11.758Z,25.63
2023-04-05T20:51:42.827Z,27.93
2023-04-05T20:54:11.573Z,28.27
2023-04-05T20:56:40.176Z,27.93
2023-04-05T20:59:08.876Z,30.43
2023-04-05T21:01:38.320Z,27.73
2023-04-05T21:04:07.279Z,33.00
2023-04-05T21:06:36.957Z,27.70
2023-04-05T21:09:06.981Z,32.63
2023-04-05T21:11:35.646Z,32.97
2023-04-05T21:14:03.997Z,27.17
2023-04-05T21:16:32.381Z,27.43
2023-04-05T21:19:00.807Z,28.37
2023-04-05T21:21:29.174Z,31.03
2023-04-05T21:23:57.492Z,30.07
2023-04-05T21:26:27.182Z,27.70
2023-04-05T21:28:55.552Z,28.33
2023-04-05T21:31:23.980Z,27.80
2023-04-05T21:33:52.624Z,29.47
2023-04-05T21:36:20.964Z,29.73
2023-04-05T21:38:49.345Z,30.23
2023-04-05T21:41:17.646Z,30.60
2023-04-05T21:43:47.338Z,30.47
2023-04-05T21:46:15.729Z,27.47
2023-04-05T21:48:44.103Z,26.57
2023-04-05T21:51:12.433Z,28.20
2023-04-05T21:53:40.733Z,29.53
2023-04-05T21:56:09.095Z,32.40
2023-04-05T21:58:37.434Z,29.70
2023-04-05T22:01:07.242Z,26.60
2023-04-05T22:03:35.664Z,29.67
2023-04-05T22:06:04.098Z,25.40
2023-04-05T22:08:34.220Z,28.57
2023-04-05T22:11:02.738Z,28.57
2023-04-05T22:13:31.166Z,28.40
2023-04-05T22:15:59.564Z,26.80
2023-04-05T22:18:29.375Z,29.50
2023-04-05T22:20:57.774Z,32.77
2023-04-05T22:23:26.392Z,28.53
2023-04-05T22:25:54.784Z,30.27
2023-04-05T22:28:23.305Z,28.07
2023-04-05T22:30:51.793Z,26.13
2023-04-05T22:33:20.114Z,29.97
2023-04-05T22:35:49.817Z,31.30
2023-04-05T22:38:18.296Z,31.37
2023-04-05T22:40:46.649Z,29.37
2023-04-05T22:43:14.953Z,27.80
2023-04-05T22:45:43.305Z,28.40
2023-04-05T22:48:11.781Z,27.87
2023-04-05T22:50:40.124Z,30.37
2023-04-05T22:53:09.824Z,28.80
2023-04-05T22:55:39.928Z,29.57
2023-04-05T22:58:08.626Z,28.57
2023-04-05T23:00:37.470Z,27.47
2023-04-05T23:03:06.137Z,29.37
2023-04-05T23:05:36.714Z,28.43
2023-04-05T23:08:05.416Z,25.27
2023-04-05T23:10:35.134Z,25.17
2023-04-05T23:13:03.496Z,27.40
2023-04-05T23:15:32.056Z,27.17
2023-04-05T23:18:00.440Z,27.83
2023-04-05T23:20:28.861Z,25.50
2023-04-05T23:22:57.477Z,25.97
2023-04-05T23:25:25.921Z,31.47
2023-04-05T23:27:55.678Z,27.07
2023-04-05T23:30:24.036Z,27.20
2023-04-05T23:32:52.397Z,27.93
2023-04-05T23:35:21.266Z,24.53
2023-04-05T23:37:50.017Z,28.07
2023-04-05T23:40:18.438Z,27.83
2023-04-05T23:42:46.768Z,28.57
2023-04-05T23:45:16.730Z,25.73
2023-04-05T23:47:45.145Z,31.27
2023-04-05T23:50:13.502Z,25.43
2023-04-05T23:52:41.920Z,25.60
2023-04-05T23:55:10.720Z,27.17
2023-04-05T23:57:39.058Z,25.77
